Ana Sayfa
METAR-TAF:

METAR-TAF

Havaalanları :

Al-Ubayyid, Sudan

Enlem: 13-10N, Boylam: 030-14E, yükseklik: 574 m

METAR: eksik

Saat: 18:18 (16:18 UTC)

Tahmin

Rapor saat 11:00 UTC de 5 saat ve 18 dakika önce yapıldı.
Ayın 02'si saat 12 UTC'den ayın 03'si saat 18 UTC'ye kadar geçerli Tahmin
Rüzgar kuzey/kuzeydoğudan 12 kt ve 22 kt'a kadar ani rüzgarlar
Görüş mesafesi 10 km veya daha fazla
1500 m altında bulut yok ve kümülonimbus yok
Geçici
ayın 03'si saat 05 UTC'den ayın 03'si saat 09 UTC'ye kadar
Görüş mesafesi: 6000 m

TAF: HSOB 021100Z 0212/0318 02012G22KT CAVOK TEMPO 0305/0309 6000

4.000'den fazla havaalanı için hava durumu gözlemleri ve tahminleri (METAR ve TAF raporları).

Kullanılabilir istasyonlar harita üzerinde sarı ve kırmızı noktalarla gösterilir.

İstasyonun adını görmek için fareyi noktanın üzerinde gezdirin.

Sonrasında hava gözlem ve tahminlerini görmek için tıklayın.

Haritayı değiştirmek için: yaklaştırmak için siyah artı işaretli yeşil düğmeye ve uzaklaştırmak için de eksi işaretli düğmeye hızla tıklayın; bitişik haritalar için yeşil okları kullanın.


METAR-TAF: